Decoded Metar for KUNU (JUNEAU in WI, USA) (IATA:UNU) | Meteo·Mobile Aviation Weather
aviador You're here:

KUNU Decoded Metar

JUNEAU in WI, USA
Report Time2019-04-23 16:15:00
UTC Time2019-04-23 16:27:47
Flight Rules vfr VFR
Wind330° at 10 Gusting to 14 kt
W.Decomp.*RWY 02: 6.6 kt HW 7.5 kt LCW
RWY 26: 3.3 kt HW 9.5 kt RCW
Visibility9999 m
Phenomena:N/A
Clouds:N/A
Expected CloudBase > 2,400 ft AGL from Temp-Dew spread
CeilingNone
Temp11°C (ISA -2)
Dew Point05°C (67% RH)
AAT6.3°C
QNH1017 hPa
Density Alt666 ft
Elevation935 ft
Report Wrong Elevation
Raw Report
KUNU 231615Z AUTO 33010G14KT 10SM CLR 11/05 A3004 RMK AO2
T01050054 TSNO=

Extra information for KUNU:More info

Metar Taf Metar & Taf Last 4 Metars F.Rules Stats Wind Profile Meteogram Temp Stats Airport Information Weather charts Add Link Nearby VenuesMetar ALERT Operation Metar Decoded Social comments

AIRNAV info for KUNU